sensor_id;sensor_type;location;lat;lon;timestamp;pressure;altitude;pressure_sealevel;temperature;humidity
35918;BME280;22011;59.912;30.300;2023-09-07T00:01:36;102497.66;;;14.34;58.25
35918;BME280;22011;59.912;30.300;2023-09-07T00:04:04;102498.34;;;14.36;58.26
35918;BME280;22011;59.912;30.300;2023-09-07T00:06:32;102501.88;;;14.36;58.45
35918;BME280;22011;59.912;30.300;2023-09-07T00:09:01;102499.19;;;14.36;58.27
35918;BME280;22011;59.912;30.300;2023-09-07T00:11:30;102503.16;;;14.42;58.04
35918;BME280;22011;59.912;30.300;2023-09-07T00:13:57;102494.38;;;14.40;57.50
35918;BME280;22011;59.912;30.300;2023-09-07T00:16:25;102499.03;;;14.38;57.86
35918;BME280;22011;59.912;30.300;2023-09-07T00:18:53;102502.84;;;14.35;57.32
35918;BME280;22011;59.912;30.300;2023-09-07T00:21:20;102499.91;;;14.29;57.29
35918;BME280;22011;59.912;30.300;2023-09-07T00:23:48;102502.59;;;14.29;57.97
35918;BME280;22011;59.912;30.300;2023-09-07T00:26:15;102506.28;;;14.28;58.12
35918;BME280;22011;59.912;30.300;2023-09-07T00:28:45;102507.97;;;14.29;57.91
35918;BME280;22011;59.912;30.300;2023-09-07T00:31:12;102504.00;;;14.33;57.63
35918;BME280;22011;59.912;30.300;2023-09-07T00:33:40;102508.22;;;14.35;57.65
35918;BME280;22011;59.912;30.300;2023-09-07T00:36:08;102510.75;;;14.37;57.58
35918;BME280;22011;59.912;30.300;2023-09-07T00:38:35;102511.75;;;14.36;57.97
35918;BME280;22011;59.912;30.300;2023-09-07T00:41:03;102506.25;;;14.37;57.74
35918;BME280;22011;59.912;30.300;2023-09-07T00:43:31;102510.91;;;14.35;57.96
35918;BME280;22011;59.912;30.300;2023-09-07T00:46:00;102510.75;;;14.37;57.71
35918;BME280;22011;59.912;30.300;2023-09-07T00:48:27;102511.06;;;14.34;57.54
35918;BME280;22011;59.912;30.300;2023-09-07T00:50:55;102515.28;;;14.36;57.62
35918;BME280;22011;59.912;30.300;2023-09-07T00:53:23;102515.28;;;14.36;57.52
35918;BME280;22011;59.912;30.300;2023-09-07T00:55:51;102520.50;;;14.38;57.44
35918;BME280;22011;59.912;30.300;2023-09-07T00:58:19;102523.75;;;14.32;57.66
35918;BME280;22011;59.912;30.300;2023-09-07T01:00:48;102522.38;;;14.28;58.22
35918;BME280;22011;59.912;30.300;2023-09-07T01:03:18;102526.19;;;14.25;57.99
35918;BME280;22011;59.912;30.300;2023-09-07T01:05:49;102526.31;;;14.24;58.73
35918;BME280;22011;59.912;30.300;2023-09-07T01:08:23;102530.56;;;14.26;59.13
35918;BME280;22011;59.912;30.300;2023-09-07T01:10:51;102520.16;;;14.14;58.84
35918;BME280;22011;59.912;30.300;2023-09-07T01:13:19;102524.66;;;14.13;58.53
35918;BME280;22011;59.912;30.300;2023-09-07T01:15:48;102529.19;;;14.13;58.93
35918;BME280;22011;59.912;30.300;2023-09-07T01:18:15;102529.03;;;14.14;58.71
35918;BME280;22011;59.912;30.300;2023-09-07T01:20:47;102525.38;;;14.15;59.41
35918;BME280;22011;59.912;30.300;2023-09-07T01:23:17;102525.53;;;14.04;59.38
35918;BME280;22011;59.912;30.300;2023-09-07T01:25:45;102532.03;;;14.01;59.45
35918;BME280;22011;59.912;30.300;2023-09-07T01:28:13;102525.81;;;14.01;59.09
35918;BME280;22011;59.912;30.300;2023-09-07T01:30:42;102534.28;;;13.96;59.28
35918;BME280;22011;59.912;30.300;2023-09-07T01:33:09;102535.44;;;13.94;59.12
35918;BME280;22011;59.912;30.300;2023-09-07T01:35:38;102534.59;;;13.93;59.73
35918;BME280;22011;59.912;30.300;2023-09-07T01:38:06;102536.00;;;13.88;59.97
35918;BME280;22011;59.912;30.300;2023-09-07T01:40:35;102540.22;;;13.90;60.11
35918;BME280;22011;59.912;30.300;2023-09-07T01:43:03;102540.81;;;13.84;60.34
35918;BME280;22011;59.912;30.300;2023-09-07T01:45:30;102543.78;;;13.81;60.00
35918;BME280;22011;59.912;30.300;2023-09-07T01:47:59;102544.75;;;13.80;60.02
35918;BME280;22011;59.912;30.300;2023-09-07T01:50:27;102538.84;;;13.77;60.40
35918;BME280;22011;59.912;30.300;2023-09-07T01:52:54;102544.47;;;13.73;60.59
35918;BME280;22011;59.912;30.300;2023-09-07T01:55:22;102543.91;;;13.70;60.27
35918;BME280;22011;59.912;30.300;2023-09-07T01:57:51;102544.19;;;13.77;61.02
35918;BME280;22011;59.912;30.300;2023-09-07T02:00:19;102545.31;;;13.74;60.59
35918;BME280;22011;59.912;30.300;2023-09-07T02:02:46;102545.63;;;13.71;60.41
35918;BME280;22011;59.912;30.300;2023-09-07T02:05:14;102546.59;;;13.70;60.19
35918;BME280;22011;59.912;30.300;2023-09-07T02:07:42;102551.41;;;13.66;60.37
35918;BME280;22011;59.912;30.300;2023-09-07T02:10:10;102550.56;;;13.66;60.67
35918;BME280;22011;59.912;30.300;2023-09-07T02:12:38;102546.19;;;13.65;60.84
35918;BME280;22011;59.912;30.300;2023-09-07T02:15:08;102552.25;;;13.67;61.10
35918;BME280;22011;59.912;30.300;2023-09-07T02:17:35;102548.56;;;13.68;60.34
35918;BME280;22011;59.912;30.300;2023-09-07T02:20:04;102554.91;;;13.67;60.38
35918;BME280;22011;59.912;30.300;2023-09-07T02:22:37;102559.16;;;13.69;60.56
35918;BME280;22011;59.912;30.300;2023-09-07T02:25:05;102553.94;;;13.68;60.26
35918;BME280;22011;59.912;30.300;2023-09-07T02:27:34;102560.56;;;13.64;59.98
35918;BME280;22011;59.912;30.300;2023-09-07T02:30:02;102560.84;;;13.61;60.00
35918;BME280;22011;59.912;30.300;2023-09-07T02:32:32;102557.59;;;13.67;60.53
35918;BME280;22011;59.912;30.300;2023-09-07T02:34:59;102549.84;;;13.64;60.19
35918;BME280;22011;59.912;30.300;2023-09-07T02:37:27;102550.00;;;13.62;60.37
35918;BME280;22011;59.912;30.300;2023-09-07T02:39:55;102555.50;;;13.61;60.49
35918;BME280;22011;59.912;30.300;2023-09-07T02:42:22;102553.78;;;13.60;60.46
35918;BME280;22011;59.912;30.300;2023-09-07T02:44:50;102555.63;;;13.59;60.69
35918;BME280;22011;59.912;30.300;2023-09-07T02:47:18;102558.03;;;13.53;60.46
35918;BME280;22011;59.912;30.300;2023-09-07T02:49:47;102560.56;;;13.54;61.16
35918;BME280;22011;59.912;30.300;2023-09-07T02:52:15;102566.06;;;13.53;60.96
35918;BME280;22011;59.912;30.300;2023-09-07T02:54:42;102560.03;;;13.51;60.56
35918;BME280;22011;59.912;30.300;2023-09-07T02:57:10;102561.41;;;13.55;60.85
35918;BME280;22011;59.912;30.300;2023-09-07T02:59:39;102557.47;;;13.59;60.84
35918;BME280;22011;59.912;30.300;2023-09-07T03:02:06;102556.47;;;13.60;60.54
35918;BME280;22011;59.912;30.300;2023-09-07T03:04:36;102554.06;;;13.57;60.92
35918;BME280;22011;59.912;30.300;2023-09-07T03:07:05;102565.63;;;13.57;61.06
35918;BME280;22011;59.912;30.300;2023-09-07T03:09:33;102565.38;;;13.51;61.10
35918;BME280;22011;59.912;30.300;2023-09-07T03:12:00;102580.03;;;13.47;60.97
35918;BME280;22011;59.912;30.300;2023-09-07T03:14:29;102581.31;;;13.43;61.02
35918;BME280;22011;59.912;30.300;2023-09-07T03:16:57;102584.69;;;13.45;61.02
35918;BME280;22011;59.912;30.300;2023-09-07T03:19:25;102595.94;;;13.38;61.38
35918;BME280;22011;59.912;30.300;2023-09-07T03:21:53;102600.03;;;13.33;61.03
35918;BME280;22011;59.912;30.300;2023-09-07T03:24:22;102607.66;;;13.37;61.14
35918;BME280;22011;59.912;30.300;2023-09-07T03:26:50;102600.75;;;13.35;61.18
35918;BME280;22011;59.912;30.300;2023-09-07T03:29:18;102599.91;;;13.34;61.00
35918;BME280;22011;59.912;30.300;2023-09-07T03:31:45;102601.84;;;13.32;61.49
35918;BME280;22011;59.912;30.300;2023-09-07T03:34:13;102608.63;;;13.36;60.98
35918;BME280;22011;59.912;30.300;2023-09-07T03:36:41;102620.47;;;13.44;61.40
35918;BME280;22011;59.912;30.300;2023-09-07T03:39:08;102619.34;;;13.46;61.26
35918;BME280;22011;59.912;30.300;2023-09-07T03:41:37;102625.28;;;13.50;61.40
35918;BME280;22011;59.912;30.300;2023-09-07T03:44:06;102633.44;;;13.48;61.05
35918;BME280;22011;59.912;30.300;2023-09-07T03:46:33;102626.13;;;13.50;61.03
35918;BME280;22011;59.912;30.300;2023-09-07T03:49:01;102629.66;;;13.51;61.44
35918;BME280;22011;59.912;30.300;2023-09-07T03:51:29;102640.06;;;13.54;62.36
35918;BME280;22011;59.912;30.300;2023-09-07T03:53:56;102635.84;;;13.51;62.75
35918;BME280;22011;59.912;30.300;2023-09-07T03:56:26;102645.28;;;13.55;63.14
35918;BME280;22011;59.912;30.300;2023-09-07T03:58:55;102637.09;;;13.57;63.28
35918;BME280;22011;59.912;30.300;2023-09-07T04:01:22;102632.16;;;13.52;63.49
35918;BME280;22011;59.912;30.300;2023-09-07T04:03:50;102632.03;;;13.54;63.41
35918;BME280;22011;59.912;30.300;2023-09-07T04:06:18;102627.66;;;13.53;63.54
35918;BME280;22011;59.912;30.300;2023-09-07T04:08:45;102629.06;;;13.57;63.35
35918;BME280;22011;59.912;30.300;2023-09-07T04:11:13;102629.34;;;13.63;63.13
35918;BME280;22011;59.912;30.300;2023-09-07T04:13:40;102632.31;;;13.70;62.97
35918;BME280;22011;59.912;30.300;2023-09-07T04:16:10;102647.69;;;13.78;63.11
35918;BME280;22011;59.912;30.300;2023-09-07T04:18:37;102635.69;;;13.72;62.96
35918;BME280;22011;59.912;30.300;2023-09-07T04:21:05;102642.06;;;13.71;62.74
35918;BME280;22011;59.912;30.300;2023-09-07T04:23:33;102645.72;;;13.70;62.64
35918;BME280;22011;59.912;30.300;2023-09-07T04:26:09;102648.13;;;13.83;63.25
35918;BME280;22011;59.912;30.300;2023-09-07T04:28:37;102636.69;;;13.71;62.45
35918;BME280;22011;59.912;30.300;2023-09-07T04:31:06;102638.38;;;13.72;63.29
35918;BME280;22011;59.912;30.300;2023-09-07T04:33:35;102642.34;;;13.78;62.70
35918;BME280;22011;59.912;30.300;2023-09-07T04:36:08;102640.66;;;13.86;62.69
35918;BME280;22011;59.912;30.300;2023-09-07T04:38:37;102641.78;;;13.84;62.30
35918;BME280;22011;59.912;30.300;2023-09-07T04:41:08;102636.41;;;13.93;62.25
35918;BME280;22011;59.912;30.300;2023-09-07T04:43:37;102641.78;;;13.93;61.26
35918;BME280;22011;59.912;30.300;2023-09-07T04:46:06;102637.81;;;13.97;60.99
35918;BME280;22011;59.912;30.300;2023-09-07T04:48:36;102646.44;;;14.01;61.27
35918;BME280;22011;59.912;30.300;2023-09-07T04:51:05;102641.91;;;14.01;61.15
35918;BME280;22011;59.912;30.300;2023-09-07T04:53:35;102643.03;;;13.99;61.55
35918;BME280;22011;59.912;30.300;2023-09-07T04:56:05;102645.72;;;13.99;61.52
35918;BME280;22011;59.912;30.300;2023-09-07T04:58:33;102657.72;;;13.95;61.45
35918;BME280;22011;59.912;30.300;2023-09-07T05:01:02;102657.56;;;13.96;61.64
35918;BME280;22011;59.912;30.300;2023-09-07T05:03:30;102663.06;;;13.95;61.15
35918;BME280;22011;59.912;30.300;2023-09-07T05:06:01;102657.84;;;14.03;61.88
35918;BME280;22011;59.912;30.300;2023-09-07T05:08:29;102651.78;;;14.01;61.91
35918;BME280;22011;59.912;30.300;2023-09-07T05:10:57;102662.66;;;13.99;61.61
35918;BME280;22011;59.912;30.300;2023-09-07T05:13:25;102662.09;;;13.96;61.16
35918;BME280;22011;59.912;30.300;2023-09-07T05:15:56;102666.03;;;14.01;61.56
35918;BME280;22011;59.912;30.300;2023-09-07T05:18:23;102668.28;;;13.96;61.84
35918;BME280;22011;59.912;30.300;2023-09-07T05:20:51;102668.44;;;13.95;62.01
35918;BME280;22011;59.912;30.300;2023-09-07T05:23:21;102655.31;;;14.01;61.85
35918;BME280;22011;59.912;30.300;2023-09-07T05:25:50;102662.22;;;14.04;61.39
35918;BME280;22011;59.912;30.300;2023-09-07T05:28:20;102648.81;;;14.04;61.36
35918;BME280;22011;59.912;30.300;2023-09-07T05:30:49;102647.56;;;14.08;61.08
35918;BME280;22011;59.912;30.300;2023-09-07T05:33:18;102651.34;;;14.15;60.86
35918;BME280;22011;59.912;30.300;2023-09-07T05:35:45;102649.25;;;14.19;60.94
35918;BME280;22011;59.912;30.300;2023-09-07T05:38:13;102651.63;;;14.22;61.14
35918;BME280;22011;59.912;30.300;2023-09-07T05:40:44;102652.06;;;14.27;60.89
35918;BME280;22011;59.912;30.300;2023-09-07T05:43:13;102656.56;;;14.26;60.41
35918;BME280;22011;59.912;30.300;2023-09-07T05:45:41;102651.34;;;14.25;60.50
35918;BME280;22011;59.912;30.300;2023-09-07T05:48:10;102661.50;;;14.31;60.59
35918;BME280;22011;59.912;30.300;2023-09-07T05:50:38;102658.25;;;14.37;59.96
35918;BME280;22011;59.912;30.300;2023-09-07T05:53:06;102661.47;;;14.40;59.81
35918;BME280;22011;59.912;30.300;2023-09-07T05:55:34;102667.69;;;14.41;59.80
35918;BME280;22011;59.912;30.300;2023-09-07T05:58:06;102662.34;;;14.51;60.43
35918;BME280;22011;59.912;30.300;2023-09-07T06:00:37;102661.34;;;14.52;59.70
35918;BME280;22011;59.912;30.300;2023-09-07T06:03:06;102659.75;;;14.59;59.81
35918;BME280;22011;59.912;30.300;2023-09-07T06:05:35;102657.34;;;14.65;59.09
35918;BME280;22011;59.912;30.300;2023-09-07T06:08:04;102660.53;;;14.79;58.43
35918;BME280;22011;59.912;30.300;2023-09-07T06:10:34;102646.94;;;14.90;58.24
35918;BME280;22011;59.912;30.300;2023-09-07T06:13:04;102648.19;;;14.95;57.75
35918;BME280;22011;59.912;30.300;2023-09-07T06:15:32;102653.66;;;15.03;56.75
35918;BME280;22011;59.912;30.300;2023-09-07T06:18:00;102648.25;;;15.13;56.17
35918;BME280;22011;59.912;30.300;2023-09-07T06:20:28;102649.19;;;15.22;55.82
35918;BME280;22011;59.912;30.300;2023-09-07T06:22:58;102647.91;;;15.26;55.43
35918;BME280;22011;59.912;30.300;2023-09-07T06:25:25;102643.06;;;15.29;56.07
35918;BME280;22011;59.912;30.300;2023-09-07T06:27:53;102646.84;;;15.36;56.41
35918;BME280;22011;59.912;30.300;2023-09-07T06:30:22;102642.56;;;15.44;56.69
35918;BME280;22011;59.912;30.300;2023-09-07T06:32:50;102639.28;;;15.50;56.90
35918;BME280;22011;59.912;30.300;2023-09-07T06:35:19;102649.66;;;15.62;56.88
35918;BME280;22011;59.912;30.300;2023-09-07T06:37:47;102645.44;;;15.60;56.75
35918;BME280;22011;59.912;30.300;2023-09-07T06:40:18;102646.25;;;15.60;56.59
35918;BME280;22011;59.912;30.300;2023-09-07T06:42:51;102659.53;;;15.62;56.74
35918;BME280;22011;59.912;30.300;2023-09-07T06:45:22;102661.94;;;15.65;56.70
35918;BME280;22011;59.912;30.300;2023-09-07T06:47:50;102664.91;;;15.62;57.02
35918;BME280;22011;59.912;30.300;2023-09-07T06:50:21;102666.94;;;15.60;57.21
35918;BME280;22011;59.912;30.300;2023-09-07T06:52:49;102673.31;;;15.59;57.13
35918;BME280;22011;59.912;30.300;2023-09-07T06:55:17;102670.91;;;15.56;57.88
35918;BME280;22011;59.912;30.300;2023-09-07T06:57:46;102666.53;;;15.55;57.84
35918;BME280;22011;59.912;30.300;2023-09-07T07:00:14;102668.31;;;15.64;57.06
35918;BME280;22011;59.912;30.300;2023-09-07T07:02:44;102671.47;;;15.77;57.52
35918;BME280;22011;59.912;30.300;2023-09-07T07:05:12;102672.00;;;15.81;56.86
35918;BME280;22011;59.912;30.300;2023-09-07T07:07:40;102667.56;;;15.89;56.65
35918;BME280;22011;59.912;30.300;2023-09-07T07:10:08;102675.91;;;16.04;55.92
35918;BME280;22011;59.912;30.300;2023-09-07T07:12:36;102669.06;;;16.10;56.47
35918;BME280;22011;59.912;30.300;2023-09-07T07:15:06;102670.53;;;16.22;56.05
35918;BME280;22011;59.912;30.300;2023-09-07T07:17:34;102677.66;;;16.31;55.82
35918;BME280;22011;59.912;30.300;2023-09-07T07:20:03;102673.88;;;16.42;55.56
35918;BME280;22011;59.912;30.300;2023-09-07T07:22:31;102683.47;;;16.44;54.88
35918;BME280;22011;59.912;30.300;2023-09-07T07:25:01;102679.41;;;16.92;55.54
35918;BME280;22011;59.912;30.300;2023-09-07T07:27:32;102688.66;;;16.63;53.68
35918;BME280;22011;59.912;30.300;2023-09-07T07:30:00;102677.94;;;16.72;53.12
35918;BME280;22011;59.912;30.300;2023-09-07T07:32:28;102679.84;;;16.79;52.96
35918;BME280;22011;59.912;30.300;2023-09-07T07:34:55;102676.03;;;16.90;52.66
35918;BME280;22011;59.912;30.300;2023-09-07T07:37:25;102684.84;;;17.00;53.25
35918;BME280;22011;59.912;30.300;2023-09-07T07:39:53;102680.13;;;17.02;52.48
35918;BME280;22011;59.912;30.300;2023-09-07T07:42:21;102678.16;;;17.12;50.37
35918;BME280;22011;59.912;30.300;2023-09-07T07:44:50;102672.50;;;17.23;49.70
35918;BME280;22011;59.912;30.300;2023-09-07T07:47:17;102669.88;;;17.48;48.95
35918;BME280;22011;59.912;30.300;2023-09-07T07:49:45;102670.25;;;17.69;48.51
35918;BME280;22011;59.912;30.300;2023-09-07T07:52:13;102662.19;;;17.77;47.45
35918;BME280;22011;59.912;30.300;2023-09-07T07:54:42;102663.38;;;17.83;48.02
35918;BME280;22011;59.912;30.300;2023-09-07T07:57:10;102656.13;;;17.83;48.16
35918;BME280;22011;59.912;30.300;2023-09-07T07:59:38;102652.44;;;17.92;48.05
35918;BME280;22011;59.912;30.300;2023-09-07T08:02:06;102650.22;;;18.37;47.23
35918;BME280;22011;59.912;30.300;2023-09-07T08:04:34;102657.81;;;18.66;46.92
35918;BME280;22011;59.912;30.300;2023-09-07T08:07:03;102663.22;;;18.66;47.10
35918;BME280;22011;59.912;30.300;2023-09-07T08:09:32;102659.16;;;18.53;47.22
35918;BME280;22011;59.912;30.300;2023-09-07T08:12:02;102666.22;;;18.54;47.78
35918;BME280;22011;59.912;30.300;2023-09-07T08:14:30;102660.69;;;18.48;47.43
35918;BME280;22011;59.912;30.300;2023-09-07T08:16:59;102661.53;;;18.48;47.38
35918;BME280;22011;59.912;30.300;2023-09-07T08:19:27;102651.75;;;18.47;46.50
35918;BME280;22011;59.912;30.300;2023-09-07T08:21:57;102649.03;;;18.55;45.95
35918;BME280;22011;59.912;30.300;2023-09-07T08:24:25;102653.41;;;18.65;45.27
35918;BME280;22011;59.912;30.300;2023-09-07T08:26:53;102641.94;;;18.71;44.64
35918;BME280;22011;59.912;30.300;2023-09-07T08:29:23;102651.97;;;18.85;44.51
35918;BME280;22011;59.912;30.300;2023-09-07T08:31:53;102649.94;;;18.87;44.46
35918;BME280;22011;59.912;30.300;2023-09-07T08:34:21;102660.06;;;18.93;43.75
35918;BME280;22011;59.912;30.300;2023-09-07T08:36:49;102646.38;;;18.94;44.37
35918;BME280;22011;59.912;30.300;2023-09-07T08:39:20;102648.72;;;18.98;45.01
35918;BME280;22011;59.912;30.300;2023-09-07T08:41:48;102650.75;;;19.04;45.00
35918;BME280;22011;59.912;30.300;2023-09-07T08:44:17;102655.44;;;19.10;43.97
35918;BME280;22011;59.912;30.300;2023-09-07T08:46:49;102648.50;;;19.15;44.47
35918;BME280;22011;59.912;30.300;2023-09-07T08:49:17;102635.03;;;19.07;42.98
35918;BME280;22011;59.912;30.300;2023-09-07T08:51:45;102638.38;;;19.09;43.02
35918;BME280;22011;59.912;30.300;2023-09-07T08:54:13;102636.03;;;19.06;42.98
35918;BME280;22011;59.912;30.300;2023-09-07T08:56:41;102643.47;;;19.04;43.02
35918;BME280;22011;59.912;30.300;2023-09-07T08:59:09;102640.56;;;19.14;42.64
35918;BME280;22011;59.912;30.300;2023-09-07T09:01:36;102640.03;;;19.18;42.59
35918;BME280;22011;59.912;30.300;2023-09-07T09:04:06;102636.09;;;19.29;42.46
35918;BME280;22011;59.912;30.300;2023-09-07T09:06:34;102647.94;;;19.28;41.96
35918;BME280;22011;59.912;30.300;2023-09-07T09:09:02;102639.59;;;19.38;41.72
35918;BME280;22011;59.912;30.300;2023-09-07T09:11:31;102639.59;;;19.38;41.74
35918;BME280;22011;59.912;30.300;2023-09-07T09:13:58;102632.81;;;19.42;41.07
35918;BME280;22011;59.912;30.300;2023-09-07T09:16:26;102644.97;;;19.46;41.64
35918;BME280;22011;59.912;30.300;2023-09-07T09:18:55;102646.88;;;19.37;41.14
35918;BME280;22011;59.912;30.300;2023-09-07T09:21:25;102637.50;;;19.48;41.29
35918;BME280;22011;59.912;30.300;2023-09-07T09:23:55;102641.94;;;19.41;41.20
35918;BME280;22011;59.912;30.300;2023-09-07T09:26:23;102637.25;;;19.35;41.81
35918;BME280;22011;59.912;30.300;2023-09-07T09:28:51;102628.28;;;19.34;42.16
35918;BME280;22011;59.912;30.300;2023-09-07T09:31:19;102633.03;;;19.32;41.99
35918;BME280;22011;59.912;30.300;2023-09-07T09:33:48;102634.38;;;19.36;42.57
35918;BME280;22011;59.912;30.300;2023-09-07T09:36:17;102635.03;;;19.38;43.05
35918;BME280;22011;59.912;30.300;2023-09-07T09:38:49;102643.63;;;19.42;43.16
35918;BME280;22011;59.912;30.300;2023-09-07T09:41:19;102642.22;;;19.23;43.32
35918;BME280;22011;59.912;30.300;2023-09-07T09:43:47;102640.97;;;19.34;43.90
35918;BME280;22011;59.912;30.300;2023-09-07T09:46:17;102628.59;;;19.39;44.12
35918;BME280;22011;59.912;30.300;2023-09-07T09:48:45;102639.91;;;19.43;43.94
35918;BME280;22011;59.912;30.300;2023-09-07T09:51:14;102635.47;;;19.50;43.74
35918;BME280;22011;59.912;30.300;2023-09-07T09:53:42;102626.34;;;19.51;43.04
35918;BME280;22011;59.912;30.300;2023-09-07T09:56:11;102628.38;;;19.49;43.82
35918;BME280;22011;59.912;30.300;2023-09-07T09:58:39;102629.75;;;19.45;43.12
35918;BME280;22011;59.912;30.300;2023-09-07T10:01:07;102638.53;;;19.47;43.11
35918;BME280;22011;59.912;30.300;2023-09-07T10:03:38;102626.00;;;19.54;43.73
35918;BME280;22011;59.912;30.300;2023-09-07T10:06:18;102627.09;;;19.68;43.94
35918;BME280;22011;59.912;30.300;2023-09-07T10:08:54;102628.91;;;19.75;44.20
35918;BME280;22011;59.912;30.300;2023-09-07T10:11:31;102630.78;;;19.89;44.76
35918;BME280;22011;59.912;30.300;2023-09-07T10:13:59;102634.84;;;19.71;44.00
35918;BME280;22011;59.912;30.300;2023-09-07T10:16:29;102628.00;;;20.20;43.99
35918;BME280;22011;59.912;30.300;2023-09-07T10:18:56;102623.84;;;19.72;43.92
35918;BME280;22011;59.912;30.300;2023-09-07T10:21:25;102637.03;;;19.75;44.37
35918;BME280;22011;59.912;30.300;2023-09-07T10:23:53;102622.19;;;19.86;44.03
35918;BME280;22011;59.912;30.300;2023-09-07T10:26:21;102618.00;;;19.83;44.06
35918;BME280;22011;59.912;30.300;2023-09-07T10:28:59;102614.78;;;20.03;44.89
35918;BME280;22011;59.912;30.300;2023-09-07T10:31:29;102615.94;;;19.71;44.14
35918;BME280;22011;59.912;30.300;2023-09-07T10:34:07;102613.97;;;19.79;45.02
35918;BME280;22011;59.912;30.300;2023-09-07T10:36:35;102614.19;;;19.47;44.87
35918;BME280;22011;59.912;30.300;2023-09-07T10:39:04;102607.47;;;19.43;44.75
35918;BME280;22011;59.912;30.300;2023-09-07T10:41:42;102608.16;;;19.68;45.00
35918;BME280;22011;59.912;30.300;2023-09-07T10:44:11;102616.53;;;19.58;45.14
35918;BME280;22011;59.912;30.300;2023-09-07T10:46:40;102617.75;;;19.47;44.91
35918;BME280;22011;59.912;30.300;2023-09-07T10:49:08;102617.91;;;19.46;44.91
35918;BME280;22011;59.912;30.300;2023-09-07T10:51:42;102623.44;;;19.61;46.04
35918;BME280;22011;59.912;30.300;2023-09-07T10:54:14;102624.09;;;19.63;45.52
35918;BME280;22011;59.912;30.300;2023-09-07T10:56:44;102616.03;;;19.54;45.00
35918;BME280;22011;59.912;30.300;2023-09-07T10:59:14;102621.41;;;19.63;45.10
35918;BME280;22011;59.912;30.300;2023-09-07T11:01:44;102614.84;;;19.57;45.07
35918;BME280;22011;59.912;30.300;2023-09-07T11:04:11;102609.63;;;19.47;44.86
35918;BME280;22011;59.912;30.300;2023-09-07T11:06:40;102619.59;;;19.47;45.33
35918;BME280;22011;59.912;30.300;2023-09-07T11:09:09;102600.69;;;19.47;45.20
35918;BME280;22011;59.912;30.300;2023-09-07T11:11:37;102611.84;;;19.52;44.87
35918;BME280;22011;59.912;30.300;2023-09-07T11:14:05;102604.03;;;19.57;44.69
35918;BME280;22011;59.912;30.300;2023-09-07T11:16:40;102610.34;;;19.72;45.71
35918;BME280;22011;59.912;30.300;2023-09-07T11:19:09;102606.56;;;19.58;45.28
35918;BME280;22011;59.912;30.300;2023-09-07T11:21:37;102604.69;;;19.59;45.38
35918;BME280;22011;59.912;30.300;2023-09-07T11:24:05;102617.19;;;19.60;45.71
35918;BME280;22011;59.912;30.300;2023-09-07T11:26:42;102614.53;;;19.75;46.48
35918;BME280;22011;59.912;30.300;2023-09-07T11:29:13;102618.06;;;19.52;47.11
35918;BME280;22011;59.912;30.300;2023-09-07T11:31:43;102611.84;;;19.52;46.26
35918;BME280;22011;59.912;30.300;2023-09-07T11:34:10;102613.34;;;19.46;45.82
35918;BME280;22011;59.912;30.300;2023-09-07T11:36:39;102611.41;;;19.63;46.25
35918;BME280;22011;59.912;30.300;2023-09-07T11:39:07;102602.59;;;19.38;46.25
35918;BME280;22011;59.912;30.300;2023-09-07T11:41:38;102610.94;;;19.28;46.58
35918;BME280;22011;59.912;30.300;2023-09-07T11:44:07;102606.19;;;19.31;46.13
35918;BME280;22011;59.912;30.300;2023-09-07T11:46:36;102607.34;;;19.36;46.08
35918;BME280;22011;59.912;30.300;2023-09-07T11:49:05;102595.50;;;19.37;46.60
35918;BME280;22011;59.912;30.300;2023-09-07T11:51:35;102600.44;;;19.34;46.10
35918;BME280;22011;59.912;30.300;2023-09-07T11:54:03;102601.44;;;19.33;46.17
35918;BME280;22011;59.912;30.300;2023-09-07T11:56:30;102600.66;;;19.55;45.84
35918;BME280;22011;59.912;30.300;2023-09-07T11:58:58;102598.16;;;19.45;45.83
35918;BME280;22011;59.912;30.300;2023-09-07T12:01:26;102591.88;;;19.53;45.82
35918;BME280;22011;59.912;30.300;2023-09-07T12:03:53;102589.00;;;19.54;45.65
35918;BME280;22011;59.912;30.300;2023-09-07T12:06:22;102590.19;;;19.52;45.08
35918;BME280;22011;59.912;30.300;2023-09-07T12:08:59;102588.34;;;19.75;45.13
35918;BME280;22011;59.912;30.300;2023-09-07T12:11:27;102587.44;;;19.60;44.69
35918;BME280;22011;59.912;30.300;2023-09-07T12:13:55;102580.53;;;19.57;44.60
35918;BME280;22011;59.912;30.300;2023-09-07T12:16:22;102582.94;;;19.52;44.67
35918;BME280;22011;59.912;30.300;2023-09-07T12:18:50;102584.78;;;19.52;44.45
35918;BME280;22011;59.912;30.300;2023-09-07T12:21:18;102577.84;;;19.49;44.90
35918;BME280;22011;59.912;30.300;2023-09-07T12:23:47;102583.81;;;19.45;45.15
35918;BME280;22011;59.912;30.300;2023-09-07T12:26:14;102562.94;;;19.31;45.28
35918;BME280;22011;59.912;30.300;2023-09-07T12:28:45;102572.06;;;19.30;45.52
35918;BME280;22011;59.912;30.300;2023-09-07T12:31:13;102560.97;;;19.24;45.43
35918;BME280;22011;59.912;30.300;2023-09-07T12:33:41;102564.69;;;19.23;45.57
35918;BME280;22011;59.912;30.300;2023-09-07T12:36:08;102553.38;;;19.20;45.24
35918;BME280;22011;59.912;30.300;2023-09-07T12:38:37;102552.41;;;19.13;45.51
35918;BME280;22011;59.912;30.300;2023-09-07T12:41:06;102560.56;;;19.05;45.62
35918;BME280;22011;59.912;30.300;2023-09-07T12:43:34;102553.69;;;18.94;45.64
35918;BME280;22011;59.912;30.300;2023-09-07T12:46:01;102554.91;;;18.91;46.26
35918;BME280;22011;59.912;30.300;2023-09-07T12:48:30;102544.88;;;19.00;46.24